createdAt,value
2018-12-24T00:01:40.267Z,99.90
2018-12-24T00:03:44.213Z,99.90
2018-12-24T00:05:48.026Z,99.90
2018-12-24T00:07:51.910Z,99.90
2018-12-24T00:09:55.721Z,99.90
2018-12-24T00:12:06.777Z,99.90
2018-12-24T00:14:05.054Z,99.90
2018-12-24T00:16:09.079Z,99.90
2018-12-24T00:18:12.916Z,99.90
2018-12-24T00:20:16.757Z,99.90
2018-12-24T00:22:20.664Z,99.90
2018-12-24T00:24:24.493Z,99.90
2018-12-24T00:26:28.295Z,99.90
2018-12-24T00:28:32.181Z,99.90
2018-12-24T00:30:35.959Z,99.90
2018-12-24T00:32:39.766Z,99.90
2018-12-24T00:34:43.749Z,99.90
2018-12-24T00:36:47.451Z,99.90
2018-12-24T00:38:51.277Z,99.90
2018-12-24T00:40:55.200Z,99.90
2018-12-24T00:42:58.960Z,99.90
2018-12-24T00:45:02.821Z,99.90
2018-12-24T00:47:06.537Z,99.90
2018-12-24T00:49:10.491Z,99.90
2018-12-24T00:51:14.358Z,99.90
2018-12-24T00:53:19.591Z,99.90
2018-12-24T00:55:23.533Z,99.90
2018-12-24T00:57:27.444Z,99.90
2018-12-24T00:59:33.194Z,99.90
2018-12-24T01:01:37.083Z,99.90
2018-12-24T01:03:41.027Z,99.90
2018-12-24T01:05:44.893Z,99.90
2018-12-24T01:07:48.613Z,99.90
2018-12-24T01:09:52.499Z,99.90
2018-12-24T01:11:56.264Z,99.90
2018-12-24T01:14:01.313Z,99.90
2018-12-24T01:16:05.174Z,99.90
2018-12-24T01:18:09.063Z,99.90
2018-12-24T01:20:12.944Z,99.90
2018-12-24T01:22:16.737Z,99.90
2018-12-24T01:24:20.555Z,99.90
2018-12-24T01:26:24.267Z,99.90
2018-12-24T01:28:28.110Z,99.90
2018-12-24T01:30:31.885Z,99.90
2018-12-24T01:32:35.663Z,99.90
2018-12-24T01:34:39.512Z,99.90
2018-12-24T01:36:43.339Z,99.90
2018-12-24T01:38:49.313Z,99.90
2018-12-24T01:40:52.553Z,99.90
2018-12-24T01:42:56.334Z,99.90
2018-12-24T01:45:00.188Z,99.90
2018-12-24T01:47:04.175Z,99.90
2018-12-24T01:49:07.957Z,99.90
2018-12-24T01:51:11.774Z,99.90
2018-12-24T01:53:15.621Z,99.90
2018-12-24T01:55:19.419Z,99.90
2018-12-24T01:57:24.998Z,99.90
2018-12-24T01:59:28.772Z,99.90
2018-12-24T02:01:32.649Z,99.90
2018-12-24T02:03:36.653Z,99.90
2018-12-24T02:05:40.515Z,99.90
2018-12-24T02:07:44.386Z,99.90
2018-12-24T02:09:48.211Z,99.90
2018-12-24T02:11:53.390Z,99.90
2018-12-24T02:13:57.090Z,99.90
2018-12-24T02:16:00.855Z,99.90
2018-12-24T02:18:04.704Z,99.90
2018-12-24T02:20:08.555Z,99.90
2018-12-24T02:22:12.903Z,99.90
2018-12-24T02:24:16.956Z,99.90
2018-12-24T02:26:20.998Z,99.90
2018-12-24T02:28:24.807Z,99.90
2018-12-24T02:30:29.953Z,99.90
2018-12-24T02:32:33.853Z,99.90
2018-12-24T02:34:37.639Z,99.90
2018-12-24T02:36:41.406Z,99.90
2018-12-24T02:38:45.302Z,99.90
2018-12-24T02:40:49.425Z,99.90
2018-12-24T02:42:53.315Z,99.90
2018-12-24T02:44:58.711Z,99.90
2018-12-24T02:47:02.677Z,99.90
2018-12-24T02:49:06.412Z,99.90
2018-12-24T02:51:10.191Z,99.90
2018-12-24T02:53:13.998Z,99.90
2018-12-24T02:55:17.884Z,99.90
2018-12-24T02:57:21.724Z,99.90
2018-12-24T02:59:25.642Z,99.50
2018-12-24T03:01:29.401Z,99.90
2018-12-24T03:03:33.353Z,99.90
2018-12-24T03:05:37.211Z,99.90
2018-12-24T03:07:41.099Z,99.90
2018-12-24T03:09:44.940Z,99.90
2018-12-24T03:11:48.806Z,99.90
2018-12-24T03:13:52.728Z,99.90
2018-12-24T03:15:56.503Z,99.90
2018-12-24T03:18:00.448Z,99.90
2018-12-24T03:20:05.198Z,99.90
2018-12-24T03:22:09.040Z,99.90
2018-12-24T03:24:12.902Z,99.90
2018-12-24T03:26:16.821Z,99.90
2018-12-24T03:28:20.704Z,99.90
2018-12-24T03:30:24.569Z,99.90
2018-12-24T03:32:28.358Z,99.90
2018-12-24T03:34:32.181Z,99.90
2018-12-24T03:36:35.919Z,99.90
2018-12-24T03:38:39.804Z,99.90
2018-12-24T03:40:43.647Z,99.90
2018-12-24T03:42:47.412Z,99.90
2018-12-24T03:44:52.345Z,99.90
2018-12-24T03:46:56.123Z,99.90
2018-12-24T03:49:00.012Z,99.90
2018-12-24T03:51:03.785Z,99.90
2018-12-24T03:53:07.551Z,99.90
2018-12-24T03:55:11.403Z,99.90
2018-12-24T03:57:15.246Z,99.90
2018-12-24T03:59:19.086Z,99.90
2018-12-24T04:01:22.782Z,99.90
2018-12-24T04:03:26.595Z,99.90
2018-12-24T04:05:30.314Z,99.90
2018-12-24T04:07:34.157Z,99.90
2018-12-24T04:09:37.993Z,99.90
2018-12-24T04:11:41.827Z,99.90
2018-12-24T04:13:45.670Z,99.90
2018-12-24T04:15:49.601Z,99.90
2018-12-24T04:17:53.408Z,99.90
2018-12-24T04:19:57.311Z,99.90
2018-12-24T04:22:03.786Z,99.90
2018-12-24T04:24:07.485Z,99.90
2018-12-24T04:26:11.325Z,99.90
2018-12-24T04:28:15.243Z,99.90
2018-12-24T04:30:19.101Z,99.90
2018-12-24T04:32:22.839Z,99.90
2018-12-24T04:34:26.607Z,99.90
2018-12-24T04:36:37.803Z,99.90
2018-12-24T04:38:41.734Z,99.90
2018-12-24T04:40:45.623Z,99.90
2018-12-24T04:42:49.375Z,99.90
2018-12-24T04:44:53.194Z,99.90
2018-12-24T04:46:56.983Z,98.80
2018-12-24T04:49:00.852Z,98.70
2018-12-24T04:51:04.665Z,98.90
2018-12-24T04:53:08.357Z,99.90
2018-12-24T04:55:12.175Z,99.90
2018-12-24T04:57:16.074Z,99.90
2018-12-24T04:59:19.906Z,99.50
2018-12-24T05:01:23.783Z,99.80
2018-12-24T05:03:27.589Z,99.90
2018-12-24T05:05:31.431Z,97.50
2018-12-24T05:07:35.158Z,97.30
2018-12-24T05:09:38.931Z,99.60
2018-12-24T05:11:42.653Z,99.60
2018-12-24T05:13:46.415Z,98.10
2018-12-24T05:15:50.220Z,98.50
2018-12-24T05:17:54.037Z,99.50
2018-12-24T05:19:58.961Z,99.70
2018-12-24T05:22:02.933Z,98.60
2018-12-24T05:24:06.715Z,98.00
2018-12-24T05:26:10.474Z,99.20
2018-12-24T05:28:14.199Z,99.90
2018-12-24T05:30:18.124Z,99.30
2018-12-24T05:32:22.011Z,99.70
2018-12-24T05:34:25.842Z,99.90
2018-12-24T05:36:29.571Z,99.90
2018-12-24T05:38:33.421Z,97.20
2018-12-24T05:40:37.200Z,93.60
2018-12-24T05:42:41.126Z,94.30
2018-12-24T05:44:44.903Z,95.70
2018-12-24T05:46:48.584Z,96.70
2018-12-24T05:48:52.558Z,98.10
2018-12-24T05:50:56.291Z,99.20
2018-12-24T05:53:00.069Z,94.90
2018-12-24T05:55:03.912Z,95.20
2018-12-24T05:57:07.635Z,96.10
2018-12-24T05:59:11.559Z,95.60
2018-12-24T06:01:15.356Z,95.90
2018-12-24T06:03:19.476Z,96.40
2018-12-24T06:05:23.195Z,97.60
2018-12-24T06:07:26.967Z,99.00
2018-12-24T06:09:31.933Z,99.50
2018-12-24T06:11:35.809Z,98.70
2018-12-24T06:13:39.688Z,98.90
2018-12-24T06:15:43.460Z,97.60
2018-12-24T06:17:47.450Z,98.40
2018-12-24T06:19:51.346Z,98.20
2018-12-24T06:21:55.158Z,98.60
2018-12-24T06:23:58.873Z,96.40
2018-12-24T06:26:02.640Z,96.20
2018-12-24T06:28:06.329Z,96.50
2018-12-24T06:30:10.146Z,96.80
2018-12-24T06:32:14.022Z,95.20
2018-12-24T06:34:17.847Z,94.80
2018-12-24T06:36:21.597Z,96.20
2018-12-24T06:38:25.302Z,97.50
2018-12-24T06:40:29.199Z,96.60
2018-12-24T06:42:33.011Z,97.70
2018-12-24T06:44:36.948Z,97.90
2018-12-24T06:46:40.881Z,99.90
2018-12-24T06:48:44.914Z,99.90
2018-12-24T06:50:48.675Z,99.90
2018-12-24T06:52:52.458Z,99.90
2018-12-24T06:54:56.236Z,99.90
2018-12-24T06:57:01.083Z,99.30
2018-12-24T06:59:05.418Z,99.90
2018-12-24T07:01:09.359Z,99.70
2018-12-24T07:03:15.936Z,99.60
2018-12-24T07:05:19.746Z,99.90
2018-12-24T07:07:23.472Z,99.90
2018-12-24T07:09:27.343Z,99.90
2018-12-24T07:11:31.183Z,99.90
2018-12-24T07:13:35.098Z,99.90
2018-12-24T07:15:38.891Z,99.90
2018-12-24T07:17:42.656Z,99.90
2018-12-24T07:19:46.533Z,99.90
2018-12-24T07:21:50.301Z,99.90
2018-12-24T07:23:54.266Z,99.90
2018-12-24T07:26:01.117Z,99.90
2018-12-24T07:28:04.962Z,99.90
2018-12-24T07:30:08.917Z,99.90
2018-12-24T07:32:12.865Z,99.90
2018-12-24T07:34:16.698Z,99.90
2018-12-24T07:36:20.640Z,99.90
2018-12-24T07:38:24.415Z,99.90
2018-12-24T07:40:28.330Z,99.90
2018-12-24T07:42:32.137Z,99.90
2018-12-24T07:44:36.101Z,99.90
2018-12-24T07:46:40.951Z,99.90
2018-12-24T07:48:44.851Z,99.90
2018-12-24T07:50:48.767Z,99.90
2018-12-24T07:52:52.765Z,99.90
2018-12-24T07:54:56.635Z,99.90
2018-12-24T07:57:08.429Z,99.90
2018-12-24T07:59:07.626Z,99.90
2018-12-24T08:01:11.451Z,99.80
2018-12-24T08:03:15.533Z,99.90
2018-12-24T08:05:22.766Z,99.90
2018-12-24T08:07:26.803Z,99.90
2018-12-24T08:09:32.169Z,99.90
2018-12-24T08:11:36.107Z,99.90
2018-12-24T08:13:40.138Z,99.10
2018-12-24T08:15:44.063Z,99.50
2018-12-24T08:17:47.932Z,99.90
2018-12-24T08:19:51.765Z,99.90
2018-12-24T08:21:57.211Z,99.90
2018-12-24T08:24:01.625Z,99.90
2018-12-24T08:26:05.534Z,99.90
2018-12-24T08:28:10.989Z,99.90
2018-12-24T08:30:14.903Z,99.90
2018-12-24T08:32:24.952Z,99.90
2018-12-24T08:34:24.504Z,99.90
2018-12-24T08:36:36.340Z,99.90
2018-12-24T08:38:56.559Z,99.90
2018-12-24T08:41:01.146Z,99.90
2018-12-24T08:43:04.270Z,99.90
2018-12-24T08:45:08.148Z,99.90
2018-12-24T08:47:16.005Z,99.90
2018-12-24T08:49:19.834Z,99.90
2018-12-24T08:51:23.706Z,99.90
2018-12-24T08:53:27.721Z,99.90
2018-12-24T08:55:32.095Z,99.90
2018-12-24T08:57:36.622Z,99.90
2018-12-24T08:59:40.801Z,99.90
2018-12-24T09:01:44.856Z,99.90
2018-12-24T09:03:48.775Z,99.90
2018-12-24T09:06:16.375Z,99.90
2018-12-24T09:08:08.180Z,99.90
2018-12-24T09:10:12.128Z,99.90
2018-12-24T09:12:16.092Z,99.90
2018-12-24T09:14:20.409Z,99.90
2018-12-24T09:16:24.708Z,99.90
2018-12-24T09:18:31.624Z,99.90
2018-12-24T09:20:37.280Z,99.90
2018-12-24T09:22:43.126Z,99.90
2018-12-24T09:24:47.012Z,99.90
2018-12-24T09:26:54.315Z,99.90
2018-12-24T09:28:58.445Z,99.00
2018-12-24T09:31:02.333Z,97.90
2018-12-24T09:33:06.299Z,96.50
2018-12-24T09:35:14.798Z,96.60
2018-12-24T09:37:21.132Z,96.10
2018-12-24T09:39:25.079Z,96.40
2018-12-24T09:41:29.056Z,95.20
2018-12-24T09:43:36.883Z,94.90
2018-12-24T09:45:39.350Z,95.10
2018-12-24T09:47:43.200Z,95.20
2018-12-24T09:49:57.476Z,94.00
2018-12-24T09:52:03.049Z,92.50
2018-12-24T09:54:06.972Z,91.20
2018-12-24T09:56:14.766Z,92.10
2018-12-24T09:58:18.762Z,91.60
2018-12-24T10:00:22.748Z,90.10
2018-12-24T10:02:29.645Z,89.90
2018-12-24T10:04:33.564Z,82.80
2018-12-24T10:06:37.701Z,80.80
2018-12-24T10:08:41.697Z,81.60
2018-12-24T10:10:45.433Z,77.30
2018-12-24T10:12:49.324Z,73.10
2018-12-24T10:14:53.420Z,73.50
2018-12-24T10:16:57.241Z,72.30
2018-12-24T10:19:01.140Z,68.80
2018-12-24T10:21:04.997Z,64.80
2018-12-24T10:23:08.845Z,64.50
2018-12-24T10:25:12.777Z,66.30
2018-12-24T10:27:16.522Z,64.80
2018-12-24T10:29:20.427Z,64.80
2018-12-24T10:31:24.283Z,66.50
2018-12-24T10:33:28.097Z,67.30
2018-12-24T10:35:32.052Z,67.50
2018-12-24T10:37:35.943Z,67.90
2018-12-24T10:39:39.792Z,66.20
2018-12-24T10:41:43.711Z,63.40
2018-12-24T10:43:47.597Z,61.50
2018-12-24T10:45:51.461Z,64.40
2018-12-24T10:47:55.350Z,64.00
2018-12-24T10:49:59.209Z,63.70
2018-12-24T10:52:03.061Z,61.90
2018-12-24T10:54:06.950Z,63.20
2018-12-24T10:56:10.837Z,63.40
2018-12-24T10:58:14.539Z,64.10
2018-12-24T11:00:18.431Z,64.80
2018-12-24T11:02:22.253Z,65.70
2018-12-24T11:04:26.159Z,63.40
2018-12-24T11:06:30.005Z,64.10
2018-12-24T11:08:33.913Z,64.70
2018-12-24T11:12:25.219Z,64.50
2018-12-24T11:14:29.499Z,64.80
2018-12-24T11:16:33.295Z,65.40
2018-12-24T11:18:37.055Z,66.20
2018-12-24T11:20:40.809Z,64.20
2018-12-24T11:22:44.562Z,65.30
2018-12-24T11:24:48.299Z,63.40
2018-12-24T11:26:52.102Z,65.10
2018-12-24T11:28:55.893Z,66.00
2018-12-24T11:30:59.777Z,66.70
2018-12-24T11:33:03.438Z,64.60
2018-12-24T11:35:07.161Z,64.50
2018-12-24T11:37:10.818Z,65.70
2018-12-24T11:39:14.570Z,66.00
2018-12-24T11:41:18.332Z,65.60
2018-12-24T11:43:22.171Z,62.90
2018-12-24T11:45:33.595Z,62.50
2018-12-24T11:47:31.506Z,62.10
2018-12-24T11:49:35.227Z,63.20
2018-12-24T11:51:38.922Z,63.00
2018-12-24T11:53:42.669Z,62.60
2018-12-24T11:55:46.466Z,63.00
2018-12-24T11:57:50.290Z,62.50
2018-12-24T11:59:54.120Z,61.50
2018-12-24T12:01:57.824Z,58.90
2018-12-24T12:04:01.538Z,59.60
2018-12-24T12:06:05.379Z,60.30
2018-12-24T12:08:09.099Z,60.40
2018-12-24T12:10:12.905Z,60.80
2018-12-24T12:12:16.797Z,61.10
2018-12-24T12:14:20.460Z,61.60
2018-12-24T12:16:24.154Z,60.80
2018-12-24T12:18:27.865Z,61.50
2018-12-24T12:20:31.513Z,61.20
2018-12-24T12:22:35.345Z,57.80
2018-12-24T12:24:39.008Z,58.60
2018-12-24T12:26:42.819Z,59.90
2018-12-24T12:28:46.533Z,60.00
2018-12-24T12:30:50.289Z,59.60
2018-12-24T12:32:53.907Z,60.40
2018-12-24T12:34:57.490Z,60.70
2018-12-24T12:37:04.876Z,61.30
2018-12-24T12:39:08.336Z,57.90
2018-12-24T12:41:12.051Z,58.40
2018-12-24T12:43:15.768Z,57.90
2018-12-24T12:45:19.428Z,59.10
2018-12-24T12:47:23.120Z,57.40
2018-12-24T12:49:26.775Z,56.20
2018-12-24T12:51:30.388Z,57.80
2018-12-24T12:53:34.150Z,58.70
2018-12-24T12:55:37.905Z,59.40
2018-12-24T12:57:41.564Z,58.30
2018-12-24T12:59:45.167Z,59.70
2018-12-24T13:01:48.944Z,59.70
2018-12-24T13:03:52.665Z,58.20
2018-12-24T13:05:56.488Z,54.40
2018-12-24T13:08:00.159Z,53.00
2018-12-24T13:10:04.638Z,55.60
2018-12-24T13:12:08.545Z,57.30
2018-12-24T13:14:12.188Z,56.40
2018-12-24T13:16:16.088Z,54.10
2018-12-24T13:18:19.707Z,53.30
2018-12-24T13:20:25.185Z,52.90
2018-12-24T13:22:30.216Z,54.90
2018-12-24T13:24:33.862Z,52.40
2018-12-24T13:26:37.592Z,52.00
2018-12-24T13:28:41.286Z,53.50
2018-12-24T13:30:47.906Z,55.50
2018-12-24T13:32:51.563Z,55.50
2018-12-24T13:34:55.332Z,51.10
2018-12-24T13:36:59.076Z,51.70
2018-12-24T13:39:02.931Z,51.20
2018-12-24T13:41:06.574Z,55.00
2018-12-24T13:43:10.435Z,52.90
2018-12-24T13:45:14.123Z,52.50
2018-12-24T13:47:17.847Z,52.60
2018-12-24T13:49:21.479Z,50.10
2018-12-24T13:51:25.090Z,54.40
2018-12-24T13:53:28.861Z,54.40
2018-12-24T13:55:32.596Z,53.30
2018-12-24T13:57:36.304Z,54.60
2018-12-24T13:59:40.068Z,52.30
2018-12-24T14:01:43.737Z,51.50
2018-12-24T14:03:47.337Z,54.00
2018-12-24T14:05:51.088Z,55.40
2018-12-24T14:07:54.942Z,53.10
2018-12-24T14:09:58.638Z,51.10
2018-12-24T14:12:02.340Z,51.50
2018-12-24T14:14:06.064Z,52.60
2018-12-24T14:16:16.666Z,54.90
2018-12-24T14:18:15.120Z,52.10
2018-12-24T14:20:18.845Z,48.70
2018-12-24T14:22:22.486Z,44.20
2018-12-24T14:24:26.236Z,45.50
2018-12-24T14:26:30.468Z,46.10
2018-12-24T14:28:34.185Z,47.70
2018-12-24T14:30:38.004Z,50.30
2018-12-24T14:32:41.703Z,50.50
2018-12-24T14:34:45.485Z,43.40
2018-12-24T14:36:49.297Z,45.00
2018-12-24T14:38:52.949Z,45.60
2018-12-24T14:40:56.683Z,47.40
2018-12-24T14:43:01.817Z,48.60
2018-12-24T14:45:06.088Z,48.80
2018-12-24T14:47:09.725Z,46.80
2018-12-24T14:49:15.551Z,46.10
2018-12-24T14:51:19.304Z,46.80
2018-12-24T14:53:22.967Z,46.90
2018-12-24T14:55:27.116Z,47.70
2018-12-24T14:57:30.794Z,53.20
2018-12-24T14:59:34.528Z,50.50
2018-12-24T15:01:38.202Z,52.20
2018-12-24T15:03:41.998Z,50.50
2018-12-24T15:05:46.858Z,52.00
2018-12-24T15:07:50.625Z,53.10
2018-12-24T15:09:54.335Z,54.50
2018-12-24T15:11:58.061Z,55.80
2018-12-24T15:14:01.895Z,57.00
2018-12-24T15:16:07.318Z,58.20
2018-12-24T15:18:11.085Z,59.60
2018-12-24T15:20:14.885Z,58.90
2018-12-24T15:22:18.717Z,57.60
2018-12-24T15:24:22.555Z,59.10
2018-12-24T15:26:26.318Z,60.00
2018-12-24T15:28:30.020Z,61.70
2018-12-24T15:30:33.793Z,63.10
2018-12-24T15:32:37.548Z,65.30
2018-12-24T15:34:41.537Z,67.10
2018-12-24T15:36:45.299Z,69.70
2018-12-24T15:38:49.067Z,71.70
2018-12-24T15:40:53.851Z,72.70
2018-12-24T15:42:57.555Z,74.50
2018-12-24T15:45:01.198Z,76.80
2018-12-24T15:47:06.649Z,78.20
2018-12-24T15:49:10.221Z,78.30
2018-12-24T15:51:13.968Z,78.20
2018-12-24T15:53:17.620Z,78.90
2018-12-24T15:55:21.430Z,79.20
2018-12-24T15:57:25.237Z,79.50
2018-12-24T15:59:28.901Z,79.50
2018-12-24T16:01:32.688Z,79.30
2018-12-24T16:03:36.897Z,79.40
2018-12-24T16:05:40.996Z,79.40
2018-12-24T16:07:44.657Z,79.70
2018-12-24T16:09:48.351Z,79.30
2018-12-24T16:11:52.128Z,75.30
2018-12-24T16:13:58.168Z,70.40
2018-12-24T16:16:01.820Z,65.90
2018-12-24T16:18:05.467Z,60.00
2018-12-24T16:20:09.127Z,60.30
2018-12-24T16:22:12.887Z,53.10
2018-12-24T16:24:16.583Z,54.20
2018-12-24T16:26:20.257Z,53.60
2018-12-24T16:28:23.965Z,54.00
2018-12-24T16:30:27.665Z,50.70
2018-12-24T16:32:31.495Z,48.60
2018-12-24T16:34:35.320Z,48.00
2018-12-24T16:36:39.239Z,41.80
2018-12-24T16:38:43.032Z,42.50
2018-12-24T16:40:46.716Z,45.50
2018-12-24T16:42:50.476Z,44.80
2018-12-24T16:44:54.204Z,48.70
2018-12-24T16:46:59.489Z,44.80
2018-12-24T16:49:03.409Z,43.40
2018-12-24T16:51:07.194Z,42.80
2018-12-24T16:53:10.992Z,45.10
2018-12-24T16:55:14.618Z,45.20
2018-12-24T16:57:18.443Z,44.50
2018-12-24T16:59:22.102Z,44.80
2018-12-24T17:01:25.736Z,44.60
2018-12-24T17:03:29.521Z,43.60
2018-12-24T17:05:33.236Z,43.10
2018-12-24T17:07:36.868Z,43.40
2018-12-24T17:09:40.530Z,45.00
2018-12-24T17:11:44.283Z,46.30
2018-12-24T17:13:48.021Z,44.10
2018-12-24T17:15:51.596Z,45.00
2018-12-24T17:17:55.360Z,45.20
2018-12-24T17:19:59.017Z,45.20
2018-12-24T17:22:02.687Z,48.00
2018-12-24T17:24:07.510Z,47.90
2018-12-24T17:26:11.270Z,45.20
2018-12-24T17:28:14.975Z,45.20
2018-12-24T17:30:18.643Z,43.70
2018-12-24T17:32:22.388Z,44.50
2018-12-24T17:34:26.122Z,44.70
2018-12-24T17:36:29.745Z,46.70
2018-12-24T17:38:33.492Z,45.90
2018-12-24T17:40:38.858Z,46.30
2018-12-24T17:42:42.738Z,48.10
2018-12-24T17:44:46.464Z,48.60
2018-12-24T17:46:50.143Z,49.70
2018-12-24T17:48:54.000Z,52.10
2018-12-24T17:50:57.649Z,50.40
2018-12-24T17:53:01.329Z,46.90
2018-12-24T17:55:11.215Z,47.90
2018-12-24T17:57:10.588Z,48.40
2018-12-24T17:59:14.273Z,49.90
2018-12-24T18:01:17.841Z,52.00
2018-12-24T18:03:21.616Z,53.50
2018-12-24T18:05:25.444Z,55.20
2018-12-24T18:07:29.267Z,56.50
2018-12-24T18:09:33.025Z,59.10
2018-12-24T18:11:36.813Z,58.60
2018-12-24T18:13:40.494Z,59.10
2018-12-24T18:15:44.182Z,60.10
2018-12-24T18:17:47.814Z,61.70
2018-12-24T18:19:51.449Z,62.00
2018-12-24T18:21:55.190Z,62.50
2018-12-24T18:23:58.961Z,64.40
2018-12-24T18:26:02.703Z,64.30
2018-12-24T18:28:06.434Z,64.50
2018-12-24T18:30:10.137Z,65.40
2018-12-24T18:32:13.808Z,66.20
2018-12-24T18:34:17.729Z,67.40
2018-12-24T18:36:21.571Z,69.00
2018-12-24T18:38:25.549Z,70.40
2018-12-24T18:40:29.378Z,72.20
2018-12-24T18:42:33.193Z,73.30
2018-12-24T18:44:37.266Z,74.70
2018-12-24T18:46:41.061Z,75.80
2018-12-24T18:48:44.880Z,75.80
2018-12-24T18:50:48.825Z,76.70
2018-12-24T18:52:52.685Z,78.20
2018-12-24T18:54:58.652Z,77.00
2018-12-24T18:57:01.978Z,77.80
2018-12-24T18:59:05.688Z,78.40
2018-12-24T19:01:11.422Z,78.40
2018-12-24T19:03:14.889Z,78.70
2018-12-24T19:05:20.963Z,77.60
2018-12-24T19:07:26.018Z,76.20
2018-12-24T19:09:31.382Z,77.10
2018-12-24T19:11:35.176Z,77.80
2018-12-24T19:13:40.527Z,78.90
2018-12-24T19:15:44.397Z,79.50
2018-12-24T19:17:49.862Z,79.70
2018-12-24T19:19:53.955Z,80.40
2018-12-24T19:21:57.775Z,80.90
2018-12-24T19:24:01.676Z,79.70
2018-12-24T19:26:05.522Z,80.00
2018-12-24T19:28:09.193Z,80.40
2018-12-24T19:30:13.212Z,81.70
2018-12-24T19:32:16.952Z,82.00
2018-12-24T19:34:20.701Z,82.10
2018-12-24T19:36:24.915Z,82.40
2018-12-24T19:38:28.968Z,85.10
2018-12-24T19:40:32.733Z,84.60
2018-12-24T19:42:36.517Z,84.60
2018-12-24T19:44:40.304Z,84.50
2018-12-24T19:46:44.004Z,85.60
2018-12-24T19:48:48.394Z,84.70
2018-12-24T19:50:52.220Z,84.40
2018-12-24T19:52:55.988Z,84.40
2018-12-24T19:54:59.961Z,84.30
2018-12-24T19:57:03.760Z,84.90
2018-12-24T19:59:07.626Z,84.20
2018-12-24T20:01:11.617Z,83.70
2018-12-24T20:03:15.471Z,84.10
2018-12-24T20:05:19.289Z,85.30
2018-12-24T20:07:23.193Z,87.00
2018-12-24T20:09:26.937Z,88.40
2018-12-24T20:11:30.808Z,89.70
2018-12-24T20:13:34.496Z,88.80
2018-12-24T20:15:38.258Z,89.20
2018-12-24T20:17:42.064Z,88.90
2018-12-24T20:19:46.003Z,89.10
2018-12-24T20:21:49.898Z,89.40
2018-12-24T20:23:53.543Z,89.70
2018-12-24T20:25:57.432Z,89.70
2018-12-24T20:28:01.842Z,89.70
2018-12-24T20:30:06.085Z,88.70
2018-12-24T20:32:09.777Z,87.80
2018-12-24T20:34:13.553Z,87.70
2018-12-24T20:36:17.583Z,86.50
2018-12-24T20:38:21.299Z,88.70
2018-12-24T20:40:25.305Z,89.90
2018-12-24T20:42:29.166Z,90.70
2018-12-24T20:44:33.053Z,91.60
2018-12-24T20:46:36.743Z,92.90
2018-12-24T20:48:40.746Z,93.30
2018-12-24T20:50:44.477Z,94.10
2018-12-24T20:52:48.290Z,93.80
2018-12-24T20:54:51.985Z,92.90
2018-12-24T20:56:55.636Z,92.80
2018-12-24T20:58:59.323Z,92.90
2018-12-24T21:01:02.975Z,93.00
2018-12-24T21:03:07.904Z,92.40
2018-12-24T21:05:11.468Z,92.70
2018-12-24T21:07:15.083Z,93.00
2018-12-24T21:09:19.037Z,93.20
2018-12-24T21:11:22.691Z,93.50
2018-12-24T21:13:26.555Z,93.50
2018-12-24T21:15:30.224Z,93.90
2018-12-24T21:17:34.114Z,93.50
2018-12-24T21:19:37.860Z,93.60
2018-12-24T21:21:41.505Z,93.60
2018-12-24T21:23:45.806Z,93.80
2018-12-24T21:25:49.642Z,93.20
2018-12-24T21:27:53.348Z,93.00
2018-12-24T21:29:57.036Z,92.90
2018-12-24T21:32:01.292Z,93.40
2018-12-24T21:34:05.129Z,93.60
2018-12-24T21:36:09.344Z,93.70
2018-12-24T21:38:13.200Z,93.60
2018-12-24T21:40:16.965Z,93.70
2018-12-24T21:42:20.685Z,93.80
2018-12-24T21:44:26.164Z,94.00
2018-12-24T21:46:30.067Z,94.00
2018-12-24T21:48:34.113Z,94.10
2018-12-24T21:50:37.807Z,94.30
2018-12-24T21:52:41.521Z,94.30
2018-12-24T21:54:45.367Z,94.00
2018-12-24T21:56:49.371Z,94.00
2018-12-24T21:58:53.682Z,94.00
2018-12-24T22:00:57.292Z,94.20
2018-12-24T22:03:01.040Z,94.20
2018-12-24T22:05:05.013Z,94.10
2018-12-24T22:07:08.792Z,93.90
2018-12-24T22:09:12.507Z,93.70
2018-12-24T22:11:16.169Z,93.50
2018-12-24T22:13:19.956Z,93.70
2018-12-24T22:15:23.806Z,93.90
2018-12-24T22:17:27.492Z,93.90
2018-12-24T22:19:32.441Z,93.80
2018-12-24T22:21:36.266Z,93.80
2018-12-24T22:23:40.045Z,93.80
2018-12-24T22:25:43.794Z,93.90
2018-12-24T22:27:47.371Z,93.80
2018-12-24T22:29:51.215Z,93.70
2018-12-24T22:31:54.981Z,93.70
2018-12-24T22:33:58.719Z,93.80
2018-12-24T22:36:04.041Z,94.00
2018-12-24T22:38:07.832Z,94.10
2018-12-24T22:40:11.670Z,94.00
2018-12-24T22:42:15.442Z,94.10
2018-12-24T22:44:19.537Z,94.30
2018-12-24T22:46:23.276Z,94.40
2018-12-24T22:48:27.058Z,94.10
2018-12-24T22:50:30.798Z,94.00
2018-12-24T22:52:34.485Z,94.20
2018-12-24T22:54:38.092Z,94.20
2018-12-24T22:56:42.290Z,94.50
2018-12-24T22:58:48.950Z,94.40
2018-12-24T23:00:52.888Z,94.40
2018-12-24T23:02:56.702Z,94.40
2018-12-24T23:05:00.462Z,94.40
2018-12-24T23:07:04.372Z,94.50
2018-12-24T23:09:08.595Z,94.30
2018-12-24T23:11:12.437Z,94.30
2018-12-24T23:13:16.284Z,94.50
2018-12-24T23:15:20.158Z,94.90
2018-12-24T23:17:25.120Z,94.50
2018-12-24T23:19:29.002Z,94.60
2018-12-24T23:21:34.578Z,94.40
2018-12-24T23:23:38.234Z,94.30
2018-12-24T23:25:42.097Z,94.40
2018-12-24T23:27:46.005Z,94.80
2018-12-24T23:29:49.804Z,94.80
2018-12-24T23:31:53.803Z,94.90
2018-12-24T23:33:57.766Z,94.90
2018-12-24T23:36:03.724Z,95.00
2018-12-24T23:38:07.533Z,95.10
2018-12-24T23:40:11.415Z,95.10
2018-12-24T23:42:15.428Z,95.10
2018-12-24T23:44:19.365Z,95.20
2018-12-24T23:46:23.400Z,95.10
2018-12-24T23:48:27.231Z,95.10
2018-12-24T23:50:32.952Z,95.00
2018-12-24T23:52:36.997Z,95.00
2018-12-24T23:54:40.823Z,95.10
2018-12-24T23:56:44.666Z,95.00
2018-12-24T23:58:48.539Z,94.60
